sensor_id;sensor_type;location;lat;lon;timestamp;pressure;altitude;pressure_sealevel;temperature;humidity
52032;BME280;38044;45.148;39.604;2023-07-31T00:00:18;100534.34;;;19.63;78.29
52032;BME280;38044;45.148;39.604;2023-07-31T00:02:43;100537.66;;;19.56;78.71
52032;BME280;38044;45.148;39.604;2023-07-31T00:05:09;100555.00;;;19.80;76.95
52032;BME280;38044;45.148;39.604;2023-07-31T00:07:35;100541.28;;;19.92;76.75
52032;BME280;38044;45.148;39.604;2023-07-31T00:10:01;100548.38;;;19.97;76.64
52032;BME280;38044;45.148;39.604;2023-07-31T00:12:28;100557.56;;;19.73;78.19
52032;BME280;38044;45.148;39.604;2023-07-31T00:14:53;100544.09;;;19.80;77.32
52032;BME280;38044;45.148;39.604;2023-07-31T00:17:19;100542.00;;;19.89;76.10
52032;BME280;38044;45.148;39.604;2023-07-31T00:19:45;100549.88;;;19.94;75.42
52032;BME280;38044;45.148;39.604;2023-07-31T00:22:16;100548.56;;;19.88;76.04
52032;BME280;38044;45.148;39.604;2023-07-31T00:24:42;100547.59;;;19.96;75.63
52032;BME280;38044;45.148;39.604;2023-07-31T00:27:07;100548.53;;;19.69;77.00
52032;BME280;38044;45.148;39.604;2023-07-31T00:29:33;100543.38;;;19.51;78.28
52032;BME280;38044;45.148;39.604;2023-07-31T00:31:59;100541.06;;;19.22;79.35
52032;BME280;38044;45.148;39.604;2023-07-31T00:34:26;100542.47;;;19.16;80.08
52032;BME280;38044;45.148;39.604;2023-07-31T00:36:52;100549.00;;;19.27;79.35
52032;BME280;38044;45.148;39.604;2023-07-31T00:39:18;100554.28;;;19.51;77.84
52032;BME280;38044;45.148;39.604;2023-07-31T00:41:44;100550.31;;;19.65;77.64
52032;BME280;38044;45.148;39.604;2023-07-31T00:44:10;100558.81;;;19.75;77.15
52032;BME280;38044;45.148;39.604;2023-07-31T00:46:36;100553.78;;;19.77;76.34
52032;BME280;38044;45.148;39.604;2023-07-31T00:49:02;100548.22;;;19.74;76.78
52032;BME280;38044;45.148;39.604;2023-07-31T00:51:29;100553.44;;;19.79;75.76
52032;BME280;38044;45.148;39.604;2023-07-31T00:53:55;100549.47;;;19.76;76.48
52032;BME280;38044;45.148;39.604;2023-07-31T00:56:22;100549.31;;;19.69;76.12
52032;BME280;38044;45.148;39.604;2023-07-31T00:58:49;100562.22;;;19.72;75.42
52032;BME280;38044;45.148;39.604;2023-07-31T01:01:15;100566.47;;;19.70;76.21
52032;BME280;38044;45.148;39.604;2023-07-31T01:03:41;100565.91;;;19.64;76.25
52032;BME280;38044;45.148;39.604;2023-07-31T01:06:15;100566.00;;;19.68;76.14
52032;BME280;38044;45.148;39.604;2023-07-31T01:11:30;100557.81;;;19.68;76.37
52032;BME280;38044;45.148;39.604;2023-07-31T01:13:57;100568.81;;;19.71;76.31
52032;BME280;38044;45.148;39.604;2023-07-31T01:16:24;100565.03;;;19.76;75.44
52032;BME280;38044;45.148;39.604;2023-07-31T01:18:50;100566.84;;;19.56;77.35
52032;BME280;38044;45.148;39.604;2023-07-31T01:21:29;100560.97;;;19.38;78.63
52032;BME280;38044;45.148;39.604;2023-07-31T01:27:12;100563.25;;;19.36;79.72
52032;BME280;38044;45.148;39.604;2023-07-31T01:32:09;100551.47;;;19.32;80.41
52032;BME280;38044;45.148;39.604;2023-07-31T01:34:36;100558.66;;;19.24;80.07
52032;BME280;38044;45.148;39.604;2023-07-31T01:37:03;100556.91;;;19.32;80.30
52032;BME280;38044;45.148;39.604;2023-07-31T01:39:29;100552.78;;;19.38;79.31
52032;BME280;38044;45.148;39.604;2023-07-31T01:41:55;100557.53;;;19.57;78.67
52032;BME280;38044;45.148;39.604;2023-07-31T01:44:21;100556.59;;;19.65;78.41
52032;BME280;38044;45.148;39.604;2023-07-31T01:46:46;100547.97;;;19.79;77.69
52032;BME280;38044;45.148;39.604;2023-07-31T01:49:12;100558.06;;;19.94;76.32
52032;BME280;38044;45.148;39.604;2023-07-31T01:51:38;100560.97;;;20.01;75.33
52032;BME280;38044;45.148;39.604;2023-07-31T01:54:04;100566.53;;;19.73;77.31
52032;BME280;38044;45.148;39.604;2023-07-31T01:56:30;100559.59;;;19.76;77.66
52032;BME280;38044;45.148;39.604;2023-07-31T01:58:56;100556.69;;;19.69;77.87
52032;BME280;38044;45.148;39.604;2023-07-31T02:01:22;100548.75;;;19.79;76.83
52032;BME280;38044;45.148;39.604;2023-07-31T02:03:48;100550.16;;;19.89;75.49
52032;BME280;38044;45.148;39.604;2023-07-31T02:06:14;100552.44;;;19.87;75.74
52032;BME280;38044;45.148;39.604;2023-07-31T02:08:40;100547.97;;;19.79;75.98
52032;BME280;38044;45.148;39.604;2023-07-31T02:11:06;100541.34;;;19.80;75.67
52032;BME280;38044;45.148;39.604;2023-07-31T02:13:32;100539.34;;;19.77;75.49
52032;BME280;38044;45.148;39.604;2023-07-31T02:15:58;100540.56;;;19.64;76.64
52032;BME280;38044;45.148;39.604;2023-07-31T02:18:24;100547.44;;;19.57;77.54
52032;BME280;38044;45.148;39.604;2023-07-31T02:20:50;100549.72;;;19.55;78.13
52032;BME280;38044;45.148;39.604;2023-07-31T02:23:17;100538.09;;;19.43;78.46
52032;BME280;38044;45.148;39.604;2023-07-31T02:25:44;100545.25;;;19.63;77.38
52032;BME280;38044;45.148;39.604;2023-07-31T02:28:10;100546.72;;;19.61;77.14
52032;BME280;38044;45.148;39.604;2023-07-31T02:30:37;100542.06;;;19.61;77.38
52032;BME280;38044;45.148;39.604;2023-07-31T02:33:04;100544.78;;;19.45;78.28
52032;BME280;38044;45.148;39.604;2023-07-31T02:35:30;100544.16;;;19.36;79.19
52032;BME280;38044;45.148;39.604;2023-07-31T02:37:56;100540.63;;;19.51;79.06
52032;BME280;38044;45.148;39.604;2023-07-31T02:40:22;100543.47;;;19.55;79.27
52032;BME280;38044;45.148;39.604;2023-07-31T02:42:49;100543.75;;;19.66;78.78
52032;BME280;38044;45.148;39.604;2023-07-31T02:45:15;100537.66;;;19.88;76.98
52032;BME280;38044;45.148;39.604;2023-07-31T02:47:40;100527.44;;;20.01;76.47
52032;BME280;38044;45.148;39.604;2023-07-31T02:50:06;100529.72;;;19.99;76.49
52032;BME280;38044;45.148;39.604;2023-07-31T02:52:32;100539.28;;;20.09;76.35
52032;BME280;38044;45.148;39.604;2023-07-31T02:54:59;100527.53;;;20.05;76.58
52032;BME280;38044;45.148;39.604;2023-07-31T02:57:32;100530.97;;;20.01;77.07
52032;BME280;38044;45.148;39.604;2023-07-31T02:59:59;100522.22;;;20.12;76.59
52032;BME280;38044;45.148;39.604;2023-07-31T03:02:26;100522.53;;;20.26;75.83
52032;BME280;38044;45.148;39.604;2023-07-31T03:04:53;100526.00;;;20.42;75.14
52032;BME280;38044;45.148;39.604;2023-07-31T03:07:19;100523.03;;;20.51;75.15
52032;BME280;38044;45.148;39.604;2023-07-31T03:09:45;100529.19;;;20.64;74.05
52032;BME280;38044;45.148;39.604;2023-07-31T03:12:11;100525.66;;;20.83;73.67
52032;BME280;38044;45.148;39.604;2023-07-31T03:14:36;100527.16;;;21.00;73.00
52032;BME280;38044;45.148;39.604;2023-07-31T03:17:02;100528.00;;;21.04;72.60
52032;BME280;38044;45.148;39.604;2023-07-31T03:19:31;100522.81;;;21.18;72.68
52032;BME280;38044;45.148;39.604;2023-07-31T03:21:57;100513.59;;;21.26;71.97
52032;BME280;38044;45.148;39.604;2023-07-31T03:24:23;100507.88;;;21.35;71.56
52032;BME280;38044;45.148;39.604;2023-07-31T03:26:49;100511.59;;;21.46;70.95
52032;BME280;38044;45.148;39.604;2023-07-31T03:29:15;100514.50;;;21.57;71.22
52032;BME280;38044;45.148;39.604;2023-07-31T03:31:41;100514.44;;;21.80;70.29
52032;BME280;38044;45.148;39.604;2023-07-31T03:34:07;100506.19;;;22.03;69.34
52032;BME280;38044;45.148;39.604;2023-07-31T03:36:33;100519.66;;;22.15;68.42
52032;BME280;38044;45.148;39.604;2023-07-31T03:38:59;100529.19;;;22.25;69.15
52032;BME280;38044;45.148;39.604;2023-07-31T03:41:24;100526.47;;;22.55;67.56
52032;BME280;38044;45.148;39.604;2023-07-31T03:44:02;100531.09;;;22.85;66.42
52032;BME280;38044;45.148;39.604;2023-07-31T03:46:28;100526.41;;;23.23;64.84
52032;BME280;38044;45.148;39.604;2023-07-31T03:48:54;100525.22;;;23.65;64.48
52032;BME280;38044;45.148;39.604;2023-07-31T03:51:23;100529.75;;;24.75;61.21
52032;BME280;38044;45.148;39.604;2023-07-31T03:53:49;100540.13;;;25.74;58.28
52032;BME280;38044;45.148;39.604;2023-07-31T03:56:15;100532.59;;;26.14;56.00
52032;BME280;38044;45.148;39.604;2023-07-31T03:58:41;100546.38;;;26.21;57.01
52032;BME280;38044;45.148;39.604;2023-07-31T04:01:06;100536.50;;;26.27;56.92
52032;BME280;38044;45.148;39.604;2023-07-31T04:03:32;100530.25;;;27.01;54.30
52032;BME280;38044;45.148;39.604;2023-07-31T04:05:58;100530.59;;;27.66;52.36
52032;BME280;38044;45.148;39.604;2023-07-31T04:08:24;100534.56;;;27.61;52.58
52032;BME280;38044;45.148;39.604;2023-07-31T04:10:50;100538.00;;;27.27;52.69
52032;BME280;38044;45.148;39.604;2023-07-31T04:13:16;100536.72;;;26.76;53.43
52032;BME280;38044;45.148;39.604;2023-07-31T04:15:42;100547.06;;;26.47;55.12
52032;BME280;38044;45.148;39.604;2023-07-31T04:18:09;100542.59;;;26.78;54.56
52032;BME280;38044;45.148;39.604;2023-07-31T04:20:35;100551.16;;;27.57;53.17
52032;BME280;38044;45.148;39.604;2023-07-31T04:23:01;100549.47;;;28.50;50.69
52032;BME280;38044;45.148;39.604;2023-07-31T04:25:26;100544.34;;;29.10;49.77
52032;BME280;38044;45.148;39.604;2023-07-31T04:27:52;100541.88;;;30.09;47.43
52032;BME280;38044;45.148;39.604;2023-07-31T04:30:18;100535.75;;;30.78;46.25
52032;BME280;38044;45.148;39.604;2023-07-31T04:32:44;100539.91;;;31.39;43.80
52032;BME280;38044;45.148;39.604;2023-07-31T04:35:10;100550.50;;;31.77;43.70
52032;BME280;38044;45.148;39.604;2023-07-31T04:37:36;100555.41;;;32.31;42.16
52032;BME280;38044;45.148;39.604;2023-07-31T04:40:02;100540.28;;;32.03;41.71
52032;BME280;38044;45.148;39.604;2023-07-31T04:42:28;100540.06;;;31.81;41.64
52032;BME280;38044;45.148;39.604;2023-07-31T04:44:53;100551.25;;;32.23;41.38
52032;BME280;38044;45.148;39.604;2023-07-31T04:47:19;100553.47;;;32.70;40.70
52032;BME280;38044;45.148;39.604;2023-07-31T04:49:45;100558.28;;;32.69;41.35
52032;BME280;38044;45.148;39.604;2023-07-31T04:52:10;100557.81;;;33.48;39.37
52032;BME280;38044;45.148;39.604;2023-07-31T04:54:36;100550.38;;;33.79;39.42
52032;BME280;38044;45.148;39.604;2023-07-31T04:57:02;100553.50;;;34.38;38.56
52032;BME280;38044;45.148;39.604;2023-07-31T04:59:27;100540.94;;;34.65;37.44
52032;BME280;38044;45.148;39.604;2023-07-31T05:01:53;100547.00;;;34.94;35.85
52032;BME280;38044;45.148;39.604;2023-07-31T05:04:18;100546.28;;;35.12;35.76
52032;BME280;38044;45.148;39.604;2023-07-31T05:06:47;100546.25;;;35.03;36.24
52032;BME280;38044;45.148;39.604;2023-07-31T05:09:13;100542.75;;;35.21;35.90
52032;BME280;38044;45.148;39.604;2023-07-31T05:11:38;100548.59;;;35.73;35.14
52032;BME280;38044;45.148;39.604;2023-07-31T05:14:05;100547.97;;;36.15;34.25
52032;BME280;38044;45.148;39.604;2023-07-31T05:16:31;100547.09;;;36.51;32.95
52032;BME280;38044;45.148;39.604;2023-07-31T05:18:57;100556.84;;;36.83;33.29
52032;BME280;38044;45.148;39.604;2023-07-31T05:21:22;100550.78;;;37.18;33.24
52032;BME280;38044;45.148;39.604;2023-07-31T05:23:48;100548.47;;;37.40;32.44
52032;BME280;38044;45.148;39.604;2023-07-31T05:26:14;100553.97;;;37.02;33.27
52032;BME280;38044;45.148;39.604;2023-07-31T05:28:39;100558.22;;;37.21;32.53
52032;BME280;38044;45.148;39.604;2023-07-31T05:31:05;100551.72;;;37.39;33.18
52032;BME280;38044;45.148;39.604;2023-07-31T05:33:31;100556.06;;;37.40;33.23
52032;BME280;38044;45.148;39.604;2023-07-31T05:35:57;100549.22;;;37.17;32.97
52032;BME280;38044;45.148;39.604;2023-07-31T05:38:23;100552.25;;;37.28;32.30
52032;BME280;38044;45.148;39.604;2023-07-31T05:40:48;100554.91;;;37.56;32.12
52032;BME280;38044;45.148;39.604;2023-07-31T05:43:14;100562.28;;;37.68;31.73
52032;BME280;38044;45.148;39.604;2023-07-31T05:45:41;100554.69;;;38.52;31.83
52032;BME280;38044;45.148;39.604;2023-07-31T05:48:06;100548.69;;;38.29;31.46
52032;BME280;38044;45.148;39.604;2023-07-31T05:50:32;100554.19;;;38.24;31.64
52032;BME280;38044;45.148;39.604;2023-07-31T05:52:58;100552.06;;;39.13;31.12
52032;BME280;38044;45.148;39.604;2023-07-31T05:55:24;100548.44;;;38.78;30.66
52032;BME280;38044;45.148;39.604;2023-07-31T05:57:52;100552.41;;;39.36;30.47
52032;BME280;38044;45.148;39.604;2023-07-31T06:00:17;100544.75;;;39.01;30.60
52032;BME280;38044;45.148;39.604;2023-07-31T06:02:43;100542.38;;;38.20;31.27
52032;BME280;38044;45.148;39.604;2023-07-31T06:05:08;100544.22;;;38.38;31.38
52032;BME280;38044;45.148;39.604;2023-07-31T06:07:34;100546.72;;;38.06;31.67
52032;BME280;38044;45.148;39.604;2023-07-31T06:10:00;100530.88;;;38.47;31.68
52032;BME280;38044;45.148;39.604;2023-07-31T06:12:30;100535.22;;;38.34;31.63
52032;BME280;38044;45.148;39.604;2023-07-31T06:14:56;100531.84;;;38.29;31.83
52032;BME280;38044;45.148;39.604;2023-07-31T06:17:22;100532.31;;;38.43;31.96
52032;BME280;38044;45.148;39.604;2023-07-31T06:19:47;100531.09;;;38.94;31.42
52032;BME280;38044;45.148;39.604;2023-07-31T06:22:13;100535.19;;;39.13;31.08
52032;BME280;38044;45.148;39.604;2023-07-31T06:24:38;100526.91;;;39.04;30.72
52032;BME280;38044;45.148;39.604;2023-07-31T06:27:04;100524.09;;;39.04;31.07
52032;BME280;38044;45.148;39.604;2023-07-31T06:29:31;100527.38;;;38.67;31.32
52032;BME280;38044;45.148;39.604;2023-07-31T06:31:56;100527.56;;;38.49;31.40
52032;BME280;38044;45.148;39.604;2023-07-31T06:34:22;100526.28;;;39.15;31.62
52032;BME280;38044;45.148;39.604;2023-07-31T06:37:04;100531.06;;;39.29;31.49
52032;BME280;38044;45.148;39.604;2023-07-31T06:39:30;100525.03;;;40.03;30.56
52032;BME280;38044;45.148;39.604;2023-07-31T06:41:55;100527.09;;;41.04;30.05
52032;BME280;38044;45.148;39.604;2023-07-31T06:44:21;100531.84;;;40.49;29.46
52032;BME280;38044;45.148;39.604;2023-07-31T06:46:47;100528.94;;;40.64;29.10
52032;BME280;38044;45.148;39.604;2023-07-31T06:49:12;100518.09;;;40.25;28.68
52032;BME280;38044;45.148;39.604;2023-07-31T06:51:40;100526.94;;;40.70;29.54
52032;BME280;38044;45.148;39.604;2023-07-31T06:54:06;100523.69;;;40.51;29.06
52032;BME280;38044;45.148;39.604;2023-07-31T06:56:31;100519.38;;;40.24;28.56
52032;BME280;38044;45.148;39.604;2023-07-31T06:58:57;100516.06;;;39.99;28.77
52032;BME280;38044;45.148;39.604;2023-07-31T07:01:23;100508.16;;;40.03;28.63
52032;BME280;38044;45.148;39.604;2023-07-31T07:03:48;100517.00;;;39.91;28.48
52032;BME280;38044;45.148;39.604;2023-07-31T07:06:16;100513.56;;;39.81;28.85
52032;BME280;38044;45.148;39.604;2023-07-31T07:08:41;100510.06;;;39.45;28.66
52032;BME280;38044;45.148;39.604;2023-07-31T07:11:07;100509.78;;;39.63;29.11
52032;BME280;38044;45.148;39.604;2023-07-31T07:13:33;100501.59;;;39.65;29.29
52032;BME280;38044;45.148;39.604;2023-07-31T07:15:59;100508.25;;;40.15;28.43
52032;BME280;38044;45.148;39.604;2023-07-31T07:18:25;100502.34;;;39.40;29.20
52032;BME280;38044;45.148;39.604;2023-07-31T07:20:51;100494.22;;;38.71;29.76
52032;BME280;38044;45.148;39.604;2023-07-31T07:23:16;100501.03;;;38.65;30.16
52032;BME280;38044;45.148;39.604;2023-07-31T07:25:43;100488.94;;;38.94;29.35
52032;BME280;38044;45.148;39.604;2023-07-31T07:28:09;100486.25;;;38.85;29.73
52032;BME280;38044;45.148;39.604;2023-07-31T07:30:34;100480.66;;;39.26;29.71
52032;BME280;38044;45.148;39.604;2023-07-31T07:33:00;100483.22;;;39.24;30.17
52032;BME280;38044;45.148;39.604;2023-07-31T07:35:26;100490.16;;;38.72;30.00
52032;BME280;38044;45.148;39.604;2023-07-31T07:37:51;100495.66;;;38.82;30.00
52032;BME280;38044;45.148;39.604;2023-07-31T07:40:17;100485.28;;;38.38;30.27
52032;BME280;38044;45.148;39.604;2023-07-31T07:42:42;100479.19;;;38.24;30.97
52032;BME280;38044;45.148;39.604;2023-07-31T07:45:08;100479.00;;;38.43;31.37
52032;BME280;38044;45.148;39.604;2023-07-31T07:47:34;100474.97;;;38.64;30.77
52032;BME280;38044;45.148;39.604;2023-07-31T07:49:59;100473.38;;;39.13;30.32
52032;BME280;38044;45.148;39.604;2023-07-31T07:52:25;100471.13;;;38.97;30.17
52032;BME280;38044;45.148;39.604;2023-07-31T07:57:48;100466.94;;;38.57;30.12
52032;BME280;38044;45.148;39.604;2023-07-31T08:00:15;100466.81;;;38.16;30.90
52032;BME280;38044;45.148;39.604;2023-07-31T08:02:42;100456.72;;;38.24;31.07
52032;BME280;38044;45.148;39.604;2023-07-31T08:05:11;100463.78;;;38.85;29.84
52032;BME280;38044;45.148;39.604;2023-07-31T08:07:37;100460.88;;;38.59;29.73
52032;BME280;38044;45.148;39.604;2023-07-31T08:10:03;100461.50;;;38.68;30.27
52032;BME280;38044;45.148;39.604;2023-07-31T08:15:25;100456.94;;;38.71;29.60
52032;BME280;38044;45.148;39.604;2023-07-31T08:17:51;100451.84;;;38.69;29.32
52032;BME280;38044;45.148;39.604;2023-07-31T08:20:17;100454.22;;;38.26;29.56
52032;BME280;38044;45.148;39.604;2023-07-31T08:22:42;100448.31;;;38.74;29.74
52032;BME280;38044;45.148;39.604;2023-07-31T08:25:08;100449.22;;;39.01;28.49
52032;BME280;38044;45.148;39.604;2023-07-31T08:27:33;100450.59;;;38.91;29.97
52032;BME280;38044;45.148;39.604;2023-07-31T08:29:59;100437.13;;;39.15;28.92
52032;BME280;38044;45.148;39.604;2023-07-31T08:32:24;100441.19;;;38.94;28.92
52032;BME280;38044;45.148;39.604;2023-07-31T08:34:50;100440.59;;;38.69;29.37
52032;BME280;38044;45.148;39.604;2023-07-31T08:37:15;100441.00;;;38.83;28.92
52032;BME280;38044;45.148;39.604;2023-07-31T08:39:41;100434.81;;;38.58;29.05
52032;BME280;38044;45.148;39.604;2023-07-31T08:42:10;100434.63;;;38.82;29.54
52032;BME280;38044;45.148;39.604;2023-07-31T08:44:35;100425.75;;;39.04;29.58
52032;BME280;38044;45.148;39.604;2023-07-31T08:47:01;100432.72;;;38.73;28.81
52032;BME280;38044;45.148;39.604;2023-07-31T08:49:27;100422.06;;;38.42;28.91
52032;BME280;38044;45.148;39.604;2023-07-31T08:51:54;100434.25;;;38.54;29.85
52032;BME280;38044;45.148;39.604;2023-07-31T08:54:20;100430.66;;;38.89;28.95
52032;BME280;38044;45.148;39.604;2023-07-31T08:56:46;100422.41;;;38.65;28.68
52032;BME280;38044;45.148;39.604;2023-07-31T08:59:11;100426.81;;;38.71;29.89
52032;BME280;38044;45.148;39.604;2023-07-31T09:01:41;100431.56;;;38.45;29.85
52032;BME280;38044;45.148;39.604;2023-07-31T09:04:08;100428.38;;;38.72;29.05
52032;BME280;38044;45.148;39.604;2023-07-31T09:09:37;100420.94;;;38.19;29.03
52032;BME280;38044;45.148;39.604;2023-07-31T09:12:03;100426.78;;;38.51;29.64
52032;BME280;38044;45.148;39.604;2023-07-31T09:14:29;100418.41;;;38.21;28.98
52032;BME280;38044;45.148;39.604;2023-07-31T09:16:55;100421.09;;;37.86;30.11
52032;BME280;38044;45.148;39.604;2023-07-31T09:19:28;100422.94;;;38.69;29.39
52032;BME280;38044;45.148;39.604;2023-07-31T09:21:54;100425.94;;;38.45;29.03
52032;BME280;38044;45.148;39.604;2023-07-31T09:24:26;100418.81;;;38.14;29.74
52032;BME280;38044;45.148;39.604;2023-07-31T09:26:53;100421.91;;;38.16;29.22
52032;BME280;38044;45.148;39.604;2023-07-31T09:29:20;100403.78;;;38.17;30.04
52032;BME280;38044;45.148;39.604;2023-07-31T09:31:45;100411.06;;;38.24;30.15
52032;BME280;38044;45.148;39.604;2023-07-31T09:34:11;100401.53;;;38.36;30.03
52032;BME280;38044;45.148;39.604;2023-07-31T09:36:49;100399.38;;;37.96;29.88
52032;BME280;38044;45.148;39.604;2023-07-31T09:39:15;100405.47;;;38.09;29.61
52032;BME280;38044;45.148;39.604;2023-07-31T09:41:45;100404.41;;;38.06;29.89
52032;BME280;38044;45.148;39.604;2023-07-31T09:44:11;100404.78;;;37.99;29.73
52032;BME280;38044;45.148;39.604;2023-07-31T09:46:37;100404.78;;;37.70;29.74
52032;BME280;38044;45.148;39.604;2023-07-31T09:49:03;100388.22;;;38.16;29.37
52032;BME280;38044;45.148;39.604;2023-07-31T09:51:30;100389.16;;;38.43;29.14
52032;BME280;38044;45.148;39.604;2023-07-31T09:53:56;100403.16;;;37.78;29.04
52032;BME280;38044;45.148;39.604;2023-07-31T09:56:22;100395.41;;;37.58;30.57
52032;BME280;38044;45.148;39.604;2023-07-31T09:58:48;100391.34;;;37.59;30.22
52032;BME280;38044;45.148;39.604;2023-07-31T10:01:15;100388.91;;;37.13;30.74
52032;BME280;38044;45.148;39.604;2023-07-31T10:03:41;100394.03;;;36.90;31.20
52032;BME280;38044;45.148;39.604;2023-07-31T10:06:08;100388.38;;;36.42;31.99
52032;BME280;38044;45.148;39.604;2023-07-31T10:08:39;100386.09;;;35.89;32.08
52032;BME280;38044;45.148;39.604;2023-07-31T10:11:21;100391.13;;;35.67;33.46
52032;BME280;38044;45.148;39.604;2023-07-31T10:13:49;100376.34;;;35.02;33.01
52032;BME280;38044;45.148;39.604;2023-07-31T10:16:18;100375.84;;;34.94;33.62
52032;BME280;38044;45.148;39.604;2023-07-31T10:19:18;100389.25;;;35.08;34.09
52032;BME280;38044;45.148;39.604;2023-07-31T10:21:45;100382.25;;;35.04;33.94
52032;BME280;38044;45.148;39.604;2023-07-31T10:24:12;100388.88;;;34.88;32.92
52032;BME280;38044;45.148;39.604;2023-07-31T10:26:39;100378.91;;;34.59;34.28
52032;BME280;38044;45.148;39.604;2023-07-31T10:29:08;100376.00;;;34.72;33.77
52032;BME280;38044;45.148;39.604;2023-07-31T10:31:37;100369.66;;;34.90;34.23
52032;BME280;38044;45.148;39.604;2023-07-31T10:34:08;100364.38;;;34.83;34.10
52032;BME280;38044;45.148;39.604;2023-07-31T10:36:36;100372.44;;;34.90;33.68
52032;BME280;38044;45.148;39.604;2023-07-31T10:39:04;100368.72;;;34.74;34.23
52032;BME280;38044;45.148;39.604;2023-07-31T10:41:30;100354.59;;;34.69;34.35
52032;BME280;38044;45.148;39.604;2023-07-31T10:43:59;100369.63;;;34.71;34.33
52032;BME280;38044;45.148;39.604;2023-07-31T10:46:27;100366.53;;;34.69;34.07
52032;BME280;38044;45.148;39.604;2023-07-31T10:49:01;100368.72;;;34.74;34.70
52032;BME280;38044;45.148;39.604;2023-07-31T10:51:34;100367.78;;;34.78;34.33
52032;BME280;38044;45.148;39.604;2023-07-31T10:54:14;100353.50;;;34.75;34.14
52032;BME280;38044;45.148;39.604;2023-07-31T10:56:45;100360.19;;;34.96;34.32
52032;BME280;38044;45.148;39.604;2023-07-31T10:59:11;100350.09;;;34.81;33.76
52032;BME280;38044;45.148;39.604;2023-07-31T11:01:55;100345.75;;;34.70;33.78
52032;BME280;38044;45.148;39.604;2023-07-31T11:04:26;100350.41;;;34.73;35.13
52032;BME280;38044;45.148;39.604;2023-07-31T11:07:00;100350.44;;;34.83;34.52
52032;BME280;38044;45.148;39.604;2023-07-31T11:09:30;100349.19;;;34.84;33.93
52032;BME280;38044;45.148;39.604;2023-07-31T11:11:58;100336.28;;;34.68;34.39
52032;BME280;38044;45.148;39.604;2023-07-31T11:14:41;100350.72;;;34.66;34.73
52032;BME280;38044;45.148;39.604;2023-07-31T11:17:10;100345.44;;;34.78;34.43
52032;BME280;38044;45.148;39.604;2023-07-31T11:19:37;100329.16;;;34.67;33.83
52032;BME280;38044;45.148;39.604;2023-07-31T11:22:03;100341.41;;;34.69;33.80
52032;BME280;38044;45.148;39.604;2023-07-31T11:24:30;100346.34;;;34.65;34.10
52032;BME280;38044;45.148;39.604;2023-07-31T11:26:56;100332.38;;;34.56;34.46
52032;BME280;38044;45.148;39.604;2023-07-31T11:29:27;100326.47;;;34.54;34.92
52032;BME280;38044;45.148;39.604;2023-07-31T11:31:53;100332.06;;;34.54;35.19
52032;BME280;38044;45.148;39.604;2023-07-31T11:34:18;100329.56;;;34.47;34.16
52032;BME280;38044;45.148;39.604;2023-07-31T11:36:55;100328.13;;;34.42;34.00
52032;BME280;38044;45.148;39.604;2023-07-31T11:39:21;100331.06;;;34.39;35.40
52032;BME280;38044;45.148;39.604;2023-07-31T11:41:47;100322.19;;;34.22;34.21
52032;BME280;38044;45.148;39.604;2023-07-31T11:44:13;100316.53;;;34.03;35.33
52032;BME280;38044;45.148;39.604;2023-07-31T11:46:39;100321.72;;;34.14;35.97
52032;BME280;38044;45.148;39.604;2023-07-31T11:49:05;100324.53;;;34.23;35.78
52032;BME280;38044;45.148;39.604;2023-07-31T11:51:31;100323.03;;;34.41;35.58
52032;BME280;38044;45.148;39.604;2023-07-31T11:53:58;100314.63;;;34.31;35.45
52032;BME280;38044;45.148;39.604;2023-07-31T11:56:27;100326.38;;;34.17;35.62
52032;BME280;38044;45.148;39.604;2023-07-31T11:58:56;100323.84;;;34.10;35.51
52032;BME280;38044;45.148;39.604;2023-07-31T12:01:23;100325.72;;;34.13;35.50
52032;BME280;38044;45.148;39.604;2023-07-31T12:03:50;100312.72;;;34.19;34.73
52032;BME280;38044;45.148;39.604;2023-07-31T12:06:16;100317.06;;;34.11;34.56
52032;BME280;38044;45.148;39.604;2023-07-31T12:08:42;100313.19;;;34.08;34.33
52032;BME280;38044;45.148;39.604;2023-07-31T12:11:09;100314.56;;;34.13;36.21
52032;BME280;38044;45.148;39.604;2023-07-31T12:13:35;100309.28;;;34.06;35.17
52032;BME280;38044;45.148;39.604;2023-07-31T12:16:03;100316.94;;;33.93;35.64
52032;BME280;38044;45.148;39.604;2023-07-31T12:18:33;100310.25;;;33.90;35.59
52032;BME280;38044;45.148;39.604;2023-07-31T12:21:02;100316.03;;;33.96;36.33
52032;BME280;38044;45.148;39.604;2023-07-31T12:23:31;100308.91;;;33.95;35.94
52032;BME280;38044;45.148;39.604;2023-07-31T12:26:03;100314.72;;;33.78;36.50
52032;BME280;38044;45.148;39.604;2023-07-31T12:28:30;100309.31;;;33.84;36.72
52032;BME280;38044;45.148;39.604;2023-07-31T12:31:00;100309.75;;;33.82;36.12
52032;BME280;38044;45.148;39.604;2023-07-31T12:33:33;100302.38;;;33.89;36.02
52032;BME280;38044;45.148;39.604;2023-07-31T12:36:04;100298.78;;;33.88;36.41
52032;BME280;38044;45.148;39.604;2023-07-31T12:38:30;100305.34;;;33.94;36.28
52032;BME280;38044;45.148;39.604;2023-07-31T12:40:56;100302.97;;;33.83;36.62
52032;BME280;38044;45.148;39.604;2023-07-31T12:43:22;100305.47;;;33.91;35.98
52032;BME280;38044;45.148;39.604;2023-07-31T12:45:48;100299.09;;;33.81;35.76
52032;BME280;38044;45.148;39.604;2023-07-31T12:48:14;100299.81;;;33.72;35.81
52032;BME280;38044;45.148;39.604;2023-07-31T12:50:40;100304.91;;;33.74;35.54
52032;BME280;38044;45.148;39.604;2023-07-31T12:53:06;100302.59;;;33.72;35.33
52032;BME280;38044;45.148;39.604;2023-07-31T12:55:32;100308.34;;;33.78;36.32